createdAt,value
2023-03-12T00:01:21.304Z,99345.97
2023-03-12T00:03:50.538Z,99347.69
2023-03-12T00:06:20.561Z,99344.28
2023-03-12T00:08:49.233Z,99343.41
2023-03-12T00:11:19.600Z,99350.25
2023-03-12T00:13:52.333Z,99342.59
2023-03-12T00:16:20.714Z,99345.16
2023-03-12T00:18:50.818Z,99346.84
2023-03-12T00:21:20.471Z,99351.97
2023-03-12T00:23:49.357Z,99349.41
2023-03-12T00:26:18.908Z,99347.69
2023-03-12T00:28:48.755Z,99342.56
2023-03-12T00:31:27.318Z,99343.41
2023-03-12T00:33:56.369Z,99342.56
2023-03-12T00:36:27.061Z,99338.28
2023-03-12T00:38:56.299Z,99339.13
2023-03-12T00:41:25.490Z,99340.00
2023-03-12T00:43:53.558Z,99328.91
2023-03-12T00:46:21.917Z,99323.78
2023-03-12T00:48:50.106Z,99333.16
2023-03-12T00:51:18.264Z,99329.72
2023-03-12T00:53:46.281Z,99329.69
2023-03-12T00:56:14.082Z,99327.94
2023-03-12T00:58:42.894Z,99325.38
2023-03-12T01:01:10.928Z,99327.91
2023-03-12T01:03:39.660Z,99333.06
2023-03-12T01:06:07.492Z,99332.19
2023-03-12T01:08:35.417Z,99325.38
2023-03-12T01:11:03.927Z,99316.88
2023-03-12T01:13:31.981Z,99322.00
2023-03-12T01:16:01.529Z,99322.78
2023-03-12T01:18:29.750Z,99315.94
2023-03-12T01:20:57.500Z,99309.97
2023-03-12T01:23:25.572Z,99303.19
2023-03-12T01:25:55.580Z,99313.38
2023-03-12T01:28:24.485Z,99315.09
2023-03-12T01:30:53.186Z,99306.50
2023-03-12T01:33:22.916Z,99309.91
2023-03-12T01:35:50.994Z,99303.91
2023-03-12T01:38:20.904Z,99301.28
2023-03-12T01:40:48.669Z,99297.78
2023-03-12T01:43:35.320Z,99289.09
2023-03-12T01:46:05.889Z,99296.78
2023-03-12T01:48:42.901Z,99283.97
2023-03-12T01:51:15.129Z,99288.13
2023-03-12T01:53:46.789Z,99258.28
2023-03-12T01:56:17.847Z,99278.78
2023-03-12T01:58:53.400Z,99276.13
2023-03-12T02:01:23.054Z,99283.06
2023-03-12T02:03:53.862Z,99287.22
2023-03-12T02:06:51.953Z,99288.06
2023-03-12T02:09:21.606Z,99290.59
2023-03-12T02:11:50.186Z,99299.16
2023-03-12T02:14:18.535Z,99302.50
2023-03-12T02:16:46.447Z,99300.84
2023-03-12T02:19:40.130Z,99304.06
2023-03-12T02:22:08.984Z,99298.19
2023-03-12T02:25:03.968Z,99288.59
2023-03-12T02:27:48.549Z,99293.78
2023-03-12T02:30:17.749Z,99305.00
2023-03-12T02:32:46.804Z,99302.47
2023-03-12T02:35:16.979Z,99281.94
2023-03-12T02:37:53.155Z,99296.25
2023-03-12T02:40:29.954Z,99296.28
2023-03-12T02:42:58.206Z,99299.75
2023-03-12T02:45:26.902Z,99299.72
2023-03-12T02:47:54.806Z,99298.84
2023-03-12T02:50:22.838Z,99304.00
2023-03-12T02:52:50.562Z,99298.72
2023-03-12T02:55:18.819Z,99297.84
2023-03-12T02:57:46.545Z,99286.66
2023-03-12T03:00:16.439Z,99282.38
2023-03-12T03:02:48.724Z,99295.13
2023-03-12T03:05:17.114Z,99293.53
2023-03-12T03:07:44.708Z,99300.38
2023-03-12T03:10:12.949Z,99295.31
2023-03-12T03:12:40.581Z,99309.81
2023-03-12T03:15:09.795Z,99315.81
2023-03-12T03:17:37.948Z,99313.13
2023-03-12T03:20:11.098Z,99318.25
2023-03-12T03:22:39.706Z,99313.97
2023-03-12T03:25:09.425Z,99321.63
2023-03-12T03:27:37.529Z,99325.84
2023-03-12T03:30:06.178Z,99319.03
2023-03-12T03:32:39.327Z,99330.19
2023-03-12T03:35:07.884Z,99331.13
2023-03-12T03:37:35.764Z,99335.91
2023-03-12T03:40:04.181Z,99337.84
2023-03-12T03:42:31.851Z,99333.56
2023-03-12T03:45:00.447Z,99344.63
2023-03-12T03:47:28.112Z,99347.25
2023-03-12T03:49:56.125Z,99337.75
2023-03-12T03:52:23.755Z,99342.88
2023-03-12T03:54:51.803Z,99343.81
2023-03-12T03:57:19.524Z,99347.94
2023-03-12T03:59:47.812Z,99348.03
2023-03-12T04:02:15.591Z,99341.22
2023-03-12T04:04:43.956Z,99336.13
2023-03-12T04:07:11.727Z,99358.47
2023-03-12T04:09:40.934Z,99368.78
2023-03-12T04:12:08.833Z,99357.69
2023-03-12T04:14:43.082Z,99368.81
2023-03-12T04:17:11.587Z,99367.03
2023-03-12T04:19:39.612Z,99362.75
2023-03-12T04:22:07.345Z,99360.28
2023-03-12T04:24:35.569Z,99371.34
2023-03-12T04:27:03.701Z,99373.16
2023-03-12T04:29:34.038Z,99372.22
2023-03-12T04:32:01.899Z,99373.91
2023-03-12T04:34:30.066Z,99377.44
2023-03-12T04:36:58.027Z,99373.84
2023-03-12T04:39:26.338Z,99373.91
2023-03-12T04:41:54.085Z,99372.06
2023-03-12T04:44:22.071Z,99371.22
2023-03-12T04:46:49.841Z,99371.19
2023-03-12T04:49:21.386Z,99369.56
2023-03-12T04:51:49.273Z,99368.78
2023-03-12T04:54:17.560Z,99366.94
2023-03-12T04:56:45.240Z,99364.25
2023-03-12T04:59:13.658Z,99361.66
2023-03-12T05:01:42.936Z,99371.88
2023-03-12T05:04:17.608Z,99362.59
2023-03-12T05:06:45.715Z,99366.66
2023-03-12T05:09:13.759Z,99377.94
2023-03-12T05:11:42.733Z,99377.13
2023-03-12T05:14:13.060Z,99373.44
2023-03-12T05:16:42.066Z,99377.72
2023-03-12T05:19:10.258Z,99374.31
2023-03-12T05:21:42.283Z,99382.03
2023-03-12T05:24:11.522Z,99382.03
2023-03-12T05:26:40.114Z,99381.13
2023-03-12T05:29:15.201Z,99375.97
2023-03-12T05:31:43.934Z,99380.31
2023-03-12T05:34:13.374Z,99376.75
2023-03-12T05:36:44.256Z,99387.09
2023-03-12T05:39:13.940Z,99388.94
2023-03-12T05:41:41.641Z,99383.59
2023-03-12T05:44:17.393Z,99388.78
2023-03-12T05:46:49.322Z,99392.25
2023-03-12T05:49:17.899Z,99411.00
2023-03-12T05:51:47.146Z,99390.25
2023-03-12T05:54:17.141Z,99399.03
2023-03-12T05:56:47.859Z,99404.34
2023-03-12T05:59:16.002Z,99404.28
2023-03-12T06:01:44.220Z,99405.88
2023-03-12T06:04:12.926Z,99398.94
2023-03-12T06:06:40.762Z,99401.56
2023-03-12T06:09:08.936Z,99413.44
2023-03-12T06:11:36.883Z,99417.69
2023-03-12T06:14:05.266Z,99413.31
2023-03-12T06:16:34.659Z,99438.34
2023-03-12T06:19:03.823Z,99438.31
2023-03-12T06:21:34.795Z,99439.25
2023-03-12T06:24:04.150Z,99434.84
2023-03-12T06:26:52.071Z,99440.03
2023-03-12T06:29:20.057Z,99442.66
2023-03-12T06:31:48.358Z,99437.38
2023-03-12T06:34:16.895Z,99428.72
2023-03-12T06:36:44.934Z,99435.31
2023-03-12T06:39:13.218Z,99445.41
2023-03-12T06:41:42.044Z,99444.09
2023-03-12T06:44:10.152Z,99444.69
2023-03-12T06:46:38.272Z,99447.97
2023-03-12T06:49:06.393Z,99451.44
2023-03-12T06:51:34.167Z,99459.13
2023-03-12T06:54:02.677Z,99465.88
2023-03-12T06:56:31.767Z,99457.56
2023-03-12T06:58:59.913Z,99464.69
2023-03-12T07:01:27.823Z,99465.38
2023-03-12T07:03:56.030Z,99469.91
2023-03-12T07:06:25.232Z,99472.22
2023-03-12T07:08:53.489Z,99474.81
2023-03-12T07:11:21.416Z,99475.78
2023-03-12T07:13:49.429Z,99481.72
2023-03-12T07:16:17.374Z,99492.66
2023-03-12T07:18:45.322Z,99496.41
2023-03-12T07:21:13.119Z,99492.88
2023-03-12T07:23:41.134Z,99479.44
2023-03-12T07:26:08.860Z,99483.19
2023-03-12T07:28:36.889Z,99483.66
2023-03-12T07:31:05.517Z,99487.44
2023-03-12T07:33:34.100Z,99490.84
2023-03-12T07:36:02.180Z,99494.69
2023-03-12T07:38:30.792Z,99501.72
2023-03-12T07:41:00.277Z,99498.72
2023-03-12T07:43:28.513Z,99490.78
2023-03-12T07:45:56.924Z,99491.44
2023-03-12T07:48:25.058Z,99503.56
2023-03-12T07:50:52.783Z,99508.91
2023-03-12T07:53:21.097Z,99515.72
2023-03-12T07:55:49.304Z,99520.78
2023-03-12T07:58:17.942Z,99513.03
2023-03-12T08:00:46.619Z,99504.50
2023-03-12T08:03:15.067Z,99505.22
2023-03-12T08:05:43.302Z,99518.44
2023-03-12T08:08:11.493Z,99508.91
2023-03-12T08:10:39.339Z,99522.78
2023-03-12T08:13:07.405Z,99529.88
2023-03-12T08:15:35.211Z,99523.25
2023-03-12T08:18:03.334Z,99530.06
2023-03-12T08:20:31.671Z,99543.41
2023-03-12T08:22:59.641Z,99539.00
2023-03-12T08:25:27.555Z,99538.19
2023-03-12T08:27:55.686Z,99559.59
2023-03-12T08:30:23.480Z,99544.28
2023-03-12T08:32:51.544Z,99560.13
2023-03-12T08:35:19.269Z,99561.25
2023-03-12T08:37:47.216Z,99547.34
2023-03-12T08:40:15.106Z,99561.13
2023-03-12T08:42:45.046Z,99566.06
2023-03-12T08:45:14.413Z,99574.97
2023-03-12T08:47:43.649Z,99582.88
2023-03-12T08:50:14.305Z,99565.34
2023-03-12T08:52:42.711Z,99574.56
2023-03-12T08:55:11.843Z,99585.06
2023-03-12T08:57:40.735Z,99572.53
2023-03-12T09:00:14.942Z,99572.19
2023-03-12T09:02:46.719Z,99577.00
2023-03-12T09:05:15.081Z,99570.09
2023-03-12T09:07:43.122Z,99579.00
2023-03-12T09:10:11.212Z,99556.97
2023-03-12T09:12:39.216Z,99587.91
2023-03-12T09:15:08.556Z,99577.63
2023-03-12T09:17:37.099Z,99599.03
2023-03-12T09:20:09.473Z,99595.47
2023-03-12T09:22:38.124Z,99602.28
2023-03-12T09:25:07.730Z,99607.41
2023-03-12T09:27:40.215Z,99602.94
2023-03-12T09:30:09.892Z,99605.94
2023-03-12T09:32:37.856Z,99594.22
2023-03-12T09:35:07.457Z,99611.19
2023-03-12T09:37:35.986Z,99603.22
2023-03-12T09:40:07.799Z,99617.59
2023-03-12T09:42:47.593Z,99610.06
2023-03-12T09:45:22.625Z,99604.88
2023-03-12T09:47:55.527Z,99611.13
2023-03-12T09:50:26.499Z,99619.66
2023-03-12T09:52:58.379Z,99623.72
2023-03-12T09:55:27.763Z,99634.47
2023-03-12T09:57:56.806Z,99624.25
2023-03-12T10:00:31.358Z,99624.00
2023-03-12T10:03:08.371Z,99639.59
2023-03-12T10:05:51.771Z,99635.34
2023-03-12T10:08:32.538Z,99641.28
2023-03-12T10:11:33.043Z,99641.16
2023-03-12T10:14:23.494Z,99629.13
2023-03-12T10:17:16.933Z,99633.38
2023-03-12T10:19:53.670Z,99640.88
2023-03-12T10:22:52.633Z,99641.81
2023-03-12T10:25:29.408Z,99639.56
2023-03-12T10:28:10.610Z,99651.25
2023-03-12T10:30:42.758Z,99654.06
2023-03-12T10:33:16.018Z,99647.78
2023-03-12T10:35:44.167Z,99665.81
2023-03-12T10:38:30.139Z,99663.41
2023-03-12T10:43:25.953Z,99671.47
2023-03-12T10:48:44.171Z,99670.09
2023-03-12T10:51:13.656Z,99671.69
2023-03-12T10:53:44.892Z,99677.97
2023-03-12T10:56:14.998Z,99685.75
2023-03-12T11:01:16.557Z,99681.09
2023-03-12T11:03:45.968Z,99666.63
2023-03-12T11:06:27.401Z,99687.78
2023-03-12T11:09:17.482Z,99686.19
2023-03-12T11:11:48.508Z,99685.63
2023-03-12T11:14:19.302Z,99667.66
2023-03-12T11:16:48.037Z,99691.38
2023-03-12T11:19:31.541Z,99669.91
2023-03-12T11:22:00.761Z,99690.50
2023-03-12T11:24:29.247Z,99683.72
2023-03-12T11:27:07.716Z,99680.47
2023-03-12T11:29:43.506Z,99686.34
2023-03-12T11:32:30.214Z,99687.84
2023-03-12T11:34:58.247Z,99679.66
2023-03-12T11:37:44.317Z,99687.94
2023-03-12T11:40:40.736Z,99691.97
2023-03-12T11:43:43.362Z,99705.19
2023-03-12T11:46:33.513Z,99696.75
2023-03-12T11:49:26.374Z,99711.84
2023-03-12T11:52:24.437Z,99708.78
2023-03-12T11:55:12.375Z,99700.44
2023-03-12T11:57:47.781Z,99702.19
2023-03-12T12:00:27.640Z,99703.53
2023-03-12T12:03:20.318Z,99697.81
2023-03-12T12:05:54.853Z,99708.16
2023-03-12T12:08:47.385Z,99691.13
2023-03-12T12:11:34.195Z,99696.06
2023-03-12T12:14:07.673Z,99700.00
2023-03-12T12:17:02.047Z,99691.19
2023-03-12T12:20:14.860Z,99694.84
2023-03-12T12:23:04.342Z,99705.63
2023-03-12T12:25:50.029Z,99714.19
2023-03-12T12:28:54.040Z,99708.81
2023-03-12T12:31:58.086Z,99710.53
2023-03-12T12:34:56.226Z,99702.97
2023-03-12T12:37:37.758Z,99720.13
2023-03-12T12:40:23.651Z,99720.75
2023-03-12T12:43:04.636Z,99723.44
2023-03-12T12:45:32.661Z,99727.28
2023-03-12T12:48:07.503Z,99738.06
2023-03-12T12:50:39.967Z,99746.22
2023-03-12T12:53:15.693Z,99749.22
2023-03-12T12:56:06.712Z,99735.19
2023-03-12T12:59:03.484Z,99760.81
2023-03-12T13:01:34.850Z,99759.72
2023-03-12T13:04:13.521Z,99762.09
2023-03-12T13:06:54.863Z,99756.81
2023-03-12T13:09:35.271Z,99760.31
2023-03-12T13:12:29.613Z,99763.88
2023-03-12T13:14:58.502Z,99779.47
2023-03-12T13:17:30.242Z,99789.59
2023-03-12T13:20:11.056Z,99791.19
2023-03-12T13:23:09.376Z,99789.25
2023-03-12T13:26:06.268Z,99781.16
2023-03-12T13:29:12.993Z,99788.59
2023-03-12T13:31:42.410Z,99778.72
2023-03-12T13:34:18.869Z,99772.38
2023-03-12T13:36:50.645Z,99786.06
2023-03-12T13:39:34.018Z,99790.28
2023-03-12T13:42:22.451Z,99785.06
2023-03-12T13:44:51.167Z,99793.97
2023-03-12T13:47:38.063Z,99789.50
2023-03-12T13:50:25.202Z,99801.25
2023-03-12T13:53:20.241Z,99797.53
2023-03-12T13:56:00.771Z,99798.63
2023-03-12T13:58:29.835Z,99805.09
2023-03-12T14:01:14.533Z,99806.34
2023-03-12T14:03:53.852Z,99815.06
2023-03-12T14:06:24.846Z,99815.97
2023-03-12T14:09:24.228Z,99807.09
2023-03-12T14:12:20.499Z,99814.81
2023-03-12T14:15:03.736Z,99815.19
2023-03-12T14:17:34.599Z,99820.16
2023-03-12T14:20:07.676Z,99821.19
2023-03-12T14:22:38.759Z,99833.16
2023-03-12T14:25:33.507Z,99828.63
2023-03-12T14:28:04.448Z,99827.56
2023-03-12T14:30:49.509Z,99833.16
2023-03-12T14:33:18.360Z,99827.06
2023-03-12T14:35:57.694Z,99836.16
2023-03-12T14:38:32.842Z,99834.75
2023-03-12T14:41:14.785Z,99843.84
2023-03-12T14:43:43.805Z,99841.75
2023-03-12T14:46:18.019Z,99841.19
2023-03-12T14:48:49.759Z,99841.31
2023-03-12T14:51:24.209Z,99839.63
2023-03-12T14:53:53.508Z,99843.16
2023-03-12T14:56:30.652Z,99842.88
2023-03-12T14:59:01.708Z,99855.44
2023-03-12T15:01:34.904Z,99847.25
2023-03-12T15:04:14.732Z,99854.91
2023-03-12T15:06:49.150Z,99860.06
2023-03-12T15:09:20.360Z,99869.81
2023-03-12T15:12:01.420Z,99870.09
2023-03-12T15:14:38.935Z,99871.69
2023-03-12T15:17:08.017Z,99882.44
2023-03-12T15:19:40.270Z,99868.66
2023-03-12T15:22:19.147Z,99880.97
2023-03-12T15:24:47.869Z,99891.44
2023-03-12T15:27:31.433Z,99894.44
2023-03-12T15:30:01.067Z,99898.06
2023-03-12T15:32:31.896Z,99900.75
2023-03-12T15:35:11.727Z,99904.28
2023-03-12T15:37:41.099Z,99908.13
2023-03-12T15:40:21.648Z,99910.09
2023-03-12T15:42:49.889Z,99912.88
2023-03-12T15:45:24.051Z,99906.75
2023-03-12T15:47:54.166Z,99910.50
2023-03-12T15:50:23.843Z,99908.97
2023-03-12T15:53:22.922Z,99909.88
2023-03-12T15:56:02.841Z,99904.84
2023-03-12T15:58:36.100Z,99911.81
2023-03-12T16:01:12.896Z,99912.53
2023-03-12T16:03:42.907Z,99923.03
2023-03-12T16:06:18.440Z,99926.50
2023-03-12T16:08:56.577Z,99914.28
2023-03-12T16:11:28.562Z,99927.25
2023-03-12T16:14:22.354Z,99914.53
2023-03-12T16:16:51.374Z,99921.47
2023-03-12T16:19:22.495Z,99925.06
2023-03-12T16:21:50.774Z,99930.16
2023-03-12T16:24:18.425Z,99929.41
2023-03-12T16:26:53.792Z,99933.88
2023-03-12T16:29:23.222Z,99932.88
2023-03-12T16:31:55.788Z,99933.88
2023-03-12T16:34:23.862Z,99938.19
2023-03-12T16:36:52.127Z,99938.19
2023-03-12T16:39:20.039Z,99936.66
2023-03-12T16:41:48.226Z,99942.72
2023-03-12T16:44:19.987Z,99948.75
2023-03-12T16:46:48.315Z,99949.59
2023-03-12T16:49:18.165Z,99945.31
2023-03-12T16:51:46.443Z,99952.22
2023-03-12T16:54:14.239Z,99953.31
2023-03-12T16:56:46.344Z,99955.06
2023-03-12T16:59:28.314Z,99962.94
2023-03-12T17:01:56.860Z,99963.84
2023-03-12T17:04:24.709Z,99967.28
2023-03-12T17:06:52.737Z,99970.69
2023-03-12T17:09:20.518Z,99967.25
2023-03-12T17:11:51.123Z,99974.13
2023-03-12T17:14:22.381Z,99967.31
2023-03-12T17:16:51.747Z,99970.84
2023-03-12T17:19:19.443Z,99967.53
2023-03-12T17:21:48.429Z,99975.31
2023-03-12T17:24:16.045Z,99977.91
2023-03-12T17:26:45.521Z,99983.03
2023-03-12T17:29:13.254Z,99981.31
2023-03-12T17:31:41.183Z,99989.03
2023-03-12T17:34:08.914Z,99991.56
2023-03-12T17:36:38.055Z,99985.53
2023-03-12T17:39:05.806Z,100000.16
2023-03-12T17:41:34.236Z,99998.44
2023-03-12T17:44:03.762Z,99998.44
2023-03-12T17:46:32.231Z,100001.88
2023-03-12T17:49:00.187Z,100002.75
2023-03-12T17:51:28.101Z,100006.22
2023-03-12T17:53:56.298Z,100006.19
2023-03-12T17:56:24.434Z,100005.34
2023-03-12T17:58:52.193Z,100000.19
2023-03-12T18:01:20.154Z,100000.16
2023-03-12T18:03:50.046Z,100000.19
2023-03-12T18:06:19.761Z,99997.63
2023-03-12T18:08:47.836Z,100000.22
2023-03-12T18:11:16.238Z,100003.72
2023-03-12T18:13:43.854Z,100009.78
2023-03-12T18:16:11.859Z,100013.25
2023-03-12T18:18:39.632Z,100012.41
2023-03-12T18:21:07.675Z,100014.97
2023-03-12T18:23:35.346Z,100023.59
2023-03-12T18:26:04.104Z,100030.47
2023-03-12T18:28:31.767Z,100027.88
2023-03-12T18:30:59.765Z,100033.03
2023-03-12T18:33:27.441Z,100038.25
2023-03-12T18:35:55.515Z,100036.53
2023-03-12T18:38:23.342Z,100039.97
2023-03-12T18:40:51.410Z,100036.53
2023-03-12T18:43:21.462Z,100032.25
2023-03-12T18:45:50.675Z,100027.97
2023-03-12T18:48:18.358Z,100039.13
2023-03-12T18:50:46.302Z,100045.13
2023-03-12T18:53:13.953Z,100025.38
2023-03-12T18:55:42.060Z,100033.97
2023-03-12T18:58:09.749Z,100042.56
2023-03-12T19:00:37.788Z,100037.41
2023-03-12T19:03:05.466Z,100030.53
2023-03-12T19:05:33.553Z,100026.22
2023-03-12T19:08:01.306Z,100027.09
2023-03-12T19:10:29.319Z,100014.22
2023-03-12T19:12:57.021Z,100029.66
2023-03-12T19:15:25.081Z,100033.06
2023-03-12T19:17:54.152Z,100026.19
2023-03-12T19:20:22.506Z,100021.09
2023-03-12T19:22:50.231Z,100024.50
2023-03-12T19:25:18.288Z,100017.66
2023-03-12T19:27:45.940Z,100032.25
2023-03-12T19:30:14.494Z,100021.94
2023-03-12T19:32:44.093Z,100034.81
2023-03-12T19:35:14.157Z,100036.53
2023-03-12T19:37:42.397Z,100037.41
2023-03-12T19:40:11.058Z,100037.38
2023-03-12T19:42:39.004Z,100040.81
2023-03-12T19:45:07.392Z,100052.84
2023-03-12T19:47:35.074Z,100049.41
2023-03-12T19:50:03.149Z,100051.97
2023-03-12T19:52:31.067Z,100056.28
2023-03-12T19:55:04.673Z,100053.72
2023-03-12T19:57:34.057Z,100058.84
2023-03-12T20:00:02.197Z,100066.56
2023-03-12T20:02:32.191Z,100057.09
2023-03-12T20:05:00.376Z,100069.09
2023-03-12T20:07:28.040Z,100058.84
2023-03-12T20:09:56.089Z,100070.88
2023-03-12T20:12:23.830Z,100068.28
2023-03-12T20:14:51.794Z,100068.28
2023-03-12T20:17:19.478Z,100074.31
2023-03-12T20:19:47.396Z,100067.44
2023-03-12T20:22:15.292Z,100065.72
2023-03-12T20:24:43.192Z,100069.09
2023-03-12T20:27:10.926Z,100064.81
2023-03-12T20:29:39.176Z,100063.09
2023-03-12T20:32:06.928Z,100057.94
2023-03-12T20:34:34.919Z,100060.47
2023-03-12T20:37:02.576Z,100066.41
2023-03-12T20:39:30.580Z,100055.25
2023-03-12T20:41:58.223Z,100060.34
2023-03-12T20:44:26.194Z,100048.25
2023-03-12T20:46:53.925Z,100042.19
2023-03-12T20:49:21.917Z,100037.84
2023-03-12T20:51:49.583Z,100044.69
2023-03-12T20:54:17.575Z,100035.19
2023-03-12T20:56:45.181Z,100032.59
2023-03-12T20:59:13.390Z,100044.59
2023-03-12T21:01:41.139Z,100046.25
2023-03-12T21:04:09.337Z,100038.56
2023-03-12T21:06:37.036Z,100045.41
2023-03-12T21:09:05.057Z,100039.34
2023-03-12T21:11:32.771Z,100034.22
2023-03-12T21:14:00.724Z,100030.69
2023-03-12T21:16:28.514Z,100032.31
2023-03-12T21:18:58.114Z,100025.44
2023-03-12T21:21:26.060Z,100028.84
2023-03-12T21:23:53.995Z,100022.88
2023-03-12T21:26:22.193Z,100023.69
2023-03-12T21:28:50.189Z,100025.53
2023-03-12T21:31:18.292Z,100024.75
2023-03-12T21:33:46.273Z,100017.16
2023-03-12T21:36:14.980Z,100030.84
2023-03-12T21:38:43.453Z,100027.44
2023-03-12T21:41:13.997Z,100019.81
2023-03-12T21:43:42.575Z,100011.28
2023-03-12T21:46:12.726Z,100025.78
2023-03-12T21:48:43.162Z,100011.94
2023-03-12T21:51:12.248Z,100014.56
2023-03-12T21:53:40.807Z,100023.09
2023-03-12T21:56:10.118Z,100017.09
2023-03-12T21:58:38.157Z,100011.97
2023-03-12T22:01:19.259Z,100021.38
2023-03-12T22:03:47.877Z,100004.19
2023-03-12T22:06:16.538Z,100009.34
2023-03-12T22:08:46.991Z,100005.97
2023-03-12T22:11:15.936Z,100010.31
2023-03-12T22:13:43.949Z,100001.81
2023-03-12T22:16:13.515Z,100006.94
2023-03-12T22:18:44.337Z,99999.28
2023-03-12T22:21:17.838Z,100008.75
2023-03-12T22:23:52.286Z,99996.72
2023-03-12T22:26:22.260Z,99986.50
2023-03-12T22:28:57.256Z,99991.66
2023-03-12T22:31:27.101Z,99988.25
2023-03-12T22:33:56.169Z,99991.75
2023-03-12T22:36:24.302Z,99991.75
2023-03-12T22:38:52.407Z,99990.03
2023-03-12T22:41:21.502Z,99984.94
2023-03-12T22:43:51.304Z,99988.34
2023-03-12T22:46:21.007Z,99978.97
2023-03-12T22:48:54.070Z,99978.09
2023-03-12T22:51:22.263Z,99983.28
2023-03-12T22:53:50.378Z,99971.28
2023-03-12T22:56:18.511Z,99973.88
2023-03-12T22:58:47.617Z,99973.88
2023-03-12T23:01:17.886Z,99966.13
2023-03-12T23:03:47.214Z,99975.56
2023-03-12T23:06:16.218Z,99968.69
2023-03-12T23:08:46.309Z,99960.13
2023-03-12T23:11:16.806Z,99959.28
2023-03-12T23:13:45.888Z,99961.00
2023-03-12T23:16:16.438Z,99959.28
2023-03-12T23:18:48.389Z,99955.81
2023-03-12T23:21:19.197Z,99948.06
2023-03-12T23:23:48.283Z,99950.69
2023-03-12T23:26:26.536Z,99952.41
2023-03-12T23:28:59.010Z,99954.97
2023-03-12T23:31:29.329Z,99964.44
2023-03-12T23:33:58.473Z,99959.28
2023-03-12T23:36:26.862Z,99960.13
2023-03-12T23:38:54.832Z,99933.47
2023-03-12T23:41:25.087Z,99927.44
2023-03-12T23:43:53.724Z,99917.09
2023-03-12T23:46:22.027Z,99914.53
2023-03-12T23:48:50.620Z,99927.44
2023-03-12T23:51:22.626Z,99933.47
2023-03-12T23:53:54.680Z,99938.63
2023-03-12T23:56:26.036Z,99934.34
2023-03-12T23:58:54.843Z,99921.41
